Tiempo atmosférico en la estación meteorológica de Peraleda Del Zaucejo, Badajoz (542 m.)



Fecha
DESCASC
Temp. máxima en grados centígrados (hora)
DESCASC
Temp. mínima en grados centígrados (hora)
DESCASC
Temp. media en grados centígrados
DESCASC
Racha de viento máxima en m/sg (hora)
DESCASC
Velocidad máxima media en intervalos de 10 minutos(hora)
DESCASC
Precipitaciones diarias en mm
DESCASC
Precipitaciones de 00:00 a 06:00 en mm
DESCASC
Precipitaciones de 06:00 a 12:00 en mm
DESCASC
Precipitaciones de 12:00 a 18:00 en mm
DESCASC
Precipitaciones de 18:00 a 24:00 en mm
DESCASC
05-04-2020 19.7 (15:00) 5.6 (06:00) 12.7 12.78 (17:30) 6.94 (17:50) 0 0 0 0 0
04-04-2020 17.3 (15:30) 3.9 (07:50) 10.6 11.67 (16:10) 7.22 (17:10) 0.2 0 0 0.2 0
03-04-2020 19 (17:20) 3.7 (07:30) 11.4 5 (13:20) 3.33 (18:00) 0 0 0 0 0
02-04-2020 14.5 (19:00) 4.7 (00:00) 9.6 7.5 (23:40) 5 (23:40) 8.2 8.2 0 0 0
01-04-2020 13.9 (15:40) 4.3 (00:00) 9.1 9.17 (16:40) 5.56 (17:30) 1 0 0 1 0
31-03-2020 14 (13:50) 7.3 (00:00) 10.7 10.83 (09:30) 6.94 (10:40) 13.4 5.2 6 2.2 0
30-03-2020 14.6 (14:00) 6.2 (00:00) 10.4 9.72 (18:40) 5.83 (00:20) 4 0 0 2.2 1.8
29-03-2020 18.2 (15:30) 2.3 (00:00) 10.3 6.94 (23:40) 5.28 (23:30) 0 0 0 0 0
28-03-2020 16.6 (17:40) 1.8 (00:00) 9.2 6.67 (12:00) 4.17 (12:00) 0 0 0 0 0
27-03-2020 10.9 (17:30) 3.6 (00:00) 7.2 11.11 (00:30) 8.33 (00:10) 0 0 0 0 0
26-03-2020 18.5 (15:30) 8.7 (00:00) 13.6 12.78 (15:50) 8.89 (23:59) 0 0 0 0 0
25-03-2020 17.9 (16:20) 6.7 (00:00) 12.3 6.67 (16:30) 4.44 (16:30) 0 0 0 0 0
24-03-2020 16.5 (16:00) 7.9 (00:00) 12.2 12.78 (12:20) 8.06 (11:40) 0 0 0 0 0
23-03-2020 14.2 (17:20) 6.3 (00:00) 10.3 10.83 (14:10) 6.39 (14:10) 6 0.2 0 4.2 1.6
22-03-2020 13.5 (17:00) 4.6 (06:50) 9 8.61 (17:40) 5.28 (17:50) 0.4 0 0 0 0.4
21-03-2020 13.3 (13:40) 6.8 (00:00) 10.1 10.56 (04:10) 7.22 (15:50) 9.6 8.2 0.2 0.8 0.4
20-03-2020 16.9 (17:30) 8.6 (00:00) 12.8 8.89 (10:50) 5.83 (11:00) 0.2 0 0 0 0.2
19-03-2020 18.2 (16:30) 5.1 (00:00) 11.7 6.39 (12:40) 4.17 (12:10) 0 0 0 0 0
18-03-2020 20.4 (17:00) 9.4 (00:00) 14.9 10.56 (05:30) 6.39 (10:40) 0 0 0 0 0
17-03-2020 15.9 (17:20) 4.3 (00:00) 10.1 11.39 (14:40) 7.22 (14:40) 1.4 1 0 0 0.4
16-03-2020 10.2 (00:00) 2.6 (00:00) 6.4 13.89 (03:20) 10.28 (03:10) 1.6 0 0 0.8 0.8
15-03-2020 22.2 (15:50) 7.2 (00:00) 14.7 14.44 (18:50) 8.89 (18:20) 5.8 0 0 0 5.8
14-03-2020 22.7 (15:40) 5.9 (00:00) 14.3 6.67 (15:30) 3.33 (15:50) 0 0 0 0 0
13-03-2020 22.1 (16:10) 5.3 (08:00) 13.7 8.06 (14:40) 5 (15:00) 0 0 0 0 0
12-03-2020 25.5 (15:30) 7.5 (00:00) 16.5 8.89 (13:20) 5.56 (16:40) 0 0 0 0 0
11-03-2020 27.7 (14:50) 5 (00:00) 16.4 6.39 (14:10) 3.89 (15:50) 0 0 0 0 0
10-03-2020 24.6 (16:30) 3.1 (00:00) 13.9 4.44 (16:50) 2.78 (17:00) 0 0 0 0 0

Gráficas

Temp. máximas Temp. mínimas Temp. medias Precipitaciones Rachas de viento máximas Velocidades máximas media en intervalos de 10 minutos

Datos horarios

Fecha y hora oficial Temperatura (ºC) Velocidad del viento (km/h) Dirección del viento Racha (km/h) Dirección de racha Precipitación (mm) Presión (hPa) Tendencia (hPa) Humedad (%)
2020-04-08 23:00:00 -- -- -- -- -- -- -- -- --
2020-04-08 22:00:00 -- -- -- -- -- -- -- -- --
2020-04-08 21:00:00 18.5 11 Sudoeste 16 Sudoeste 0 -- -- 68
2020-04-08 20:00:00 20.1 9 Sudoeste 15 Sudoeste 0 -- -- 61
2020-04-08 19:00:00 20.5 9 Sudoeste 15 Sudoeste 0 -- -- 58
2020-04-08 18:00:00 21 9 Sudoeste 19 Sudoeste 0 -- -- 56
2020-04-08 17:00:00 21.1 8 Sudoeste 16 Sudoeste 0 -- -- 56
2020-04-08 16:00:00 21.4 9 Sudoeste 18 Este 0 -- -- 56
2020-04-08 15:00:00 20.9 9 Este 18 Sudeste 0 -- -- 63
2020-04-08 14:00:00 19.5 8 Este 18 Este 0 -- -- 67
2020-04-08 13:00:00 18.4 7 Este 13 Este 0 -- -- 76
2020-04-08 12:00:00 15.5 3 Este 8 Este 0 -- -- 89
2020-04-08 11:00:00 12.5 3 Nordeste 6 Noroeste 0 -- -- 99
2020-04-08 10:00:00 11.5 0 Calma 4 Sudoeste 0 -- -- 99
2020-04-08 09:00:00 10.9 4 Sudoeste 7 Sudoeste 0 -- -- 99
2020-04-08 08:00:00 10.6 9 Sudoeste 15 Sudoeste 0 -- -- 99
2020-04-08 07:00:00 9.9 0 Calma 3 Oeste 0 -- -- 99
2020-04-08 06:00:00 9.4 0 Calma 2 Noroeste 0 -- -- 98
2020-04-08 05:00:00 9.5 -- -- -- -- 0 -- -- 99
2020-04-08 04:00:00 9.2 2 Noroeste 4 Noroeste 0 -- -- 97
2020-04-08 03:00:00 10.2 0 Calma 5 Noroeste 0 -- -- 97
2020-04-08 02:00:00 10.8 0 Calma 4 Noroeste 0 -- -- 96
2020-04-08 01:00:00 11.8 0 Calma 7 Oeste 0 -- -- 95
2020-04-08 00:00:00 12.4 3 Oeste 4 Oeste 0 -- -- 95
2020-04-07 23:00:00 13 3 Oeste 7 Oeste 0 -- -- 92
2020-04-07 22:00:00 14.5 5 Noroeste 9 Noroeste 0 -- -- 87
2020-04-07 21:00:00 16.7 3 Noroeste 13 Oeste 0 -- -- 80
2020-04-07 20:00:00 18.3 11 Oeste 17 Oeste 0 -- -- 73
2020-04-07 19:00:00 19.4 9 Oeste 18 Noroeste 0 -- -- 67
2020-04-07 18:00:00 19.3 9 Oeste 22 Oeste 0 -- -- 65
2020-04-07 17:00:00 19.1 11 Sudoeste 19 Sur 0 -- -- 66
2020-04-07 16:00:00 19.2 10 Sur 21 Sudoeste 0 -- -- 67
2020-04-07 15:00:00 18 11 Sur 19 Sudoeste 0 -- -- 69
2020-04-07 14:00:00 18.4 10 Sur 23 Sudoeste 0 -- -- 68
2020-04-07 13:00:00 17.5 12 Sur 22 Sudeste 0 -- -- 73
2020-04-07 12:00:00 17.1 12 Sur 24 Sur 0 -- -- 72
2020-04-07 11:00:00 15.9 13 Sur 22 Sudoeste 0 -- -- 75
2020-04-07 10:00:00 15 14 Sur 22 Sur 0 -- -- 82
2020-04-07 09:00:00 13.5 2 Sur 13 Sudeste 0 -- -- 90
2020-04-07 08:00:00 12.7 8 Sudeste 14 Sudeste 0 -- -- 92
2020-04-07 07:00:00 13.3 10 Sur 21 Sur 0 -- -- 92
2020-04-07 06:00:00 12.7 5 Sur 12 Sur 0 -- -- 96
2020-04-07 05:00:00 13 4 Sur 17 Sur 0 -- -- 96
2020-04-07 04:00:00 13.3 9 Sur 18 Sur 0 -- -- 94
2020-04-07 03:00:00 13.5 8 Sudeste 17 Sudeste 0 -- -- 94
2020-04-07 02:00:00 13.5 8 Sudeste 14 Sudeste 0 -- -- 94
2020-04-07 01:00:00 13 0 Calma 4 Sudeste 0 -- -- 95
2020-04-07 00:00:00 13.5 3 Este 13 Sur 0 -- -- 93
2020-04-06 23:00:00 14.2 6 Sur 19 Sur 0 -- -- 91
2020-04-06 22:00:00 14.5 9 Sur 16 Sur 0 -- -- 90
2020-04-06 21:00:00 14.8 8 Sudoeste 16 Sur 0 -- -- 87
2020-04-06 20:00:00 15.6 10 Sur 21 Sur 0 -- -- 84
2020-04-06 19:00:00 16.2 13 Sur 21 Sur 0 -- -- 82
2020-04-06 18:00:00 16.8 11 Sur 19 Sur 0 -- -- 78
2020-04-06 17:00:00 16.8 12 Sudoeste 25 Sur 0 -- -- 76
2020-04-06 16:00:00 16.9 15 Sudoeste 26 Sudoeste 0 -- -- 76
2020-04-06 15:00:00 17.8 18 Sudoeste 28 Oeste 0 -- -- 71
2020-04-06 14:00:00 16.9 14 Sudoeste 30 Sudoeste 0 -- -- 76
2020-04-06 13:00:00 16.5 15 Sudoeste 27 Sur 0 -- -- 78
2020-04-06 12:00:00 14.7 13 Sudoeste 24 Sur 0 -- -- 83
2020-04-06 11:00:00 13.8 12 Sur 21 Sur 0 -- -- 90
2020-04-06 10:00:00 13 10 Sur 21 Sudoeste 0 -- -- 93
2020-04-06 09:00:00 12.6 6 Sur 18 Sudoeste 0 -- -- 94
2020-04-06 08:00:00 12.4 8 Sur 15 Sur 0 -- -- 95
2020-04-06 07:00:00 12.5 8 Sur 19 Sudoeste 0 -- -- 95
2020-04-06 06:00:00 12.6 9 Sudoeste 24 Sur 0 -- -- 95
2020-04-06 05:00:00 12.8 11 Sudoeste 21 Sur 0 -- -- 95
2020-04-06 04:00:00 12.9 8 Sur 21 Sur 0 -- -- 94
2020-04-06 03:00:00 13 9 Sur 24 Sur 0.6 -- -- 94
2020-04-06 02:00:00 13.5 12 Sudoeste 27 Sudoeste 0.4 -- -- 92
2020-04-06 01:00:00 13.7 10 Sudoeste 24 Sudoeste 0 -- -- 89
2020-04-06 00:00:00 13.8 8 Sur 31 Sur 0 -- -- 85
2020-04-05 23:00:00 14.2 7 Sur 26 Sudoeste 0 -- -- 82
2020-04-05 22:00:00 14.7 8 Sur 28 Sudoeste 0 -- -- 79
2020-04-05 21:00:00 15.5 16 Sudoeste 30 Sur 0 -- -- 75
2020-04-05 20:00:00 17.4 15 Sur 33 Sur 0 -- -- 66
2020-04-05 19:00:00 18.5 14 Sur 33 Sur 0 -- -- 60
2020-04-05 18:00:00 19.1 24 Sur 46 Sur 0 -- -- 58
2020-04-05 17:00:00 19 20 Sur 37 Sudoeste 0 -- -- 56
2020-04-05 16:00:00 19.2 24 Sudoeste 37 Sur 0 -- -- 54
2020-04-05 15:00:00 19.7 19 Sur 36 Sudoeste 0 -- -- 52
2020-04-05 14:00:00 18.6 18 Sur 31 Sur 0 -- -- 57
2020-04-05 13:00:00 17.1 18 Sur 32 Sur 0 -- -- 60
2020-04-05 12:00:00 16.3 17 Sur 27 Sur 0 -- -- 58
2020-04-05 11:00:00 13.9 13 Sur 22 Sur 0 -- -- 69
2020-04-05 10:00:00 11.8 5 Este 14 Sur 0 -- -- 78
2020-04-05 09:00:00 8.5 3 Este 14 Sur 0 -- -- 87
2020-04-05 08:00:00 6.2 3 Sudeste 7 Sur 0 -- -- 95
2020-04-05 07:00:00 5.9 2 Norte 5 Noroeste 0 -- -- 95
2020-04-05 06:00:00 5.6 3 Noroeste 6 Noroeste 0 -- -- 93
2020-04-05 05:00:00 6.7 2 Oeste 6 Noroeste 0 -- -- 90
2020-04-05 04:00:00 8.9 0 Calma 22 Sur 0 -- -- 80
2020-04-05 03:00:00 10.5 11 Sur 22 Sudeste 0 -- -- 73
2020-04-05 02:00:00 11 10 Sur 23 Sur 0 -- -- 73
2020-04-05 01:00:00 11.8 10 Sur 27 Sur 0 -- -- 72
2020-04-05 00:00:00 12 10 Sudeste 19 Sur 0 -- -- 73
2020-04-04 23:00:00 12.1 12 Sudeste 18 Sudeste 0 -- -- 76
2020-04-04 22:00:00 12.4 9 Sur 16 Sur 0 -- -- 74
2020-04-04 21:00:00 13 7 Sudeste 13 Sudeste 0 -- -- 72
2020-04-04 20:00:00 13.6 10 Sudeste 18 Sudeste 0 -- -- 69
2020-04-04 19:00:00 13.7 11 Sur 20 Sur 0 -- -- 69
2020-04-04 18:00:00 12.8 7 Sur 39 Sur 0.2 -- -- 76
2020-04-04 17:00:00 15.3 19 Sur 42 Sur 0 -- -- 53
2020-04-04 16:00:00 16 22 Sur 40 Sur 0 -- -- 52
2020-04-04 15:00:00 16 23 Sur 40 Sur 0 -- -- 47
2020-04-04 14:00:00 16.4 21 Sur 33 Sur 0 -- -- 45
2020-04-04 13:00:00 15.9 18 Sudeste 30 Sudeste 0 -- -- 48
2020-04-04 12:00:00 14.7 16 Sudeste 28 Sudeste 0 -- -- 57
2020-04-04 11:00:00 14 19 Sudeste 29 Sudeste 0 -- -- 64
2020-04-04 10:00:00 10.4 3 Este 6 Este 0 -- -- 82
2020-04-04 09:00:00 5.9 0 Calma 5 Norte 0 -- -- 98
2020-04-04 08:00:00 3.9 0 Calma 3 Noroeste 0 -- -- 97
2020-04-04 07:00:00 4.3 0 Calma 3 Oeste 0 -- -- 96
2020-04-04 06:00:00 4.7 3 Noroeste 4 Noroeste 0 -- -- 95
2020-04-04 05:00:00 5.8 0 Calma 5 Noroeste 0 -- -- 93
2020-04-04 04:00:00 7 3 Oeste 6 Noroeste 0 -- -- 91
2020-04-04 03:00:00 6.6 3 Noroeste 5 Oeste 0 -- -- 93
2020-04-04 02:00:00 7.6 0 Calma 5 Noroeste 0 -- -- 91
2020-04-04 01:00:00 8.5 3 Noroeste 7 Noroeste 0 -- -- 87
2020-04-04 00:00:00 9.3 0 Calma 4 Noroeste 0 -- -- 88
2020-04-03 23:00:00 11.5 2 Oeste 4 Sudoeste 0 -- -- 78
2020-04-03 22:00:00 14.5 0 Calma 10 Sur 0 -- -- 67
2020-04-03 21:00:00 15.6 8 Sur 13 Sur 0 -- -- 59
2020-04-03 20:00:00 17 6 Sudeste 14 Sudeste 0 -- -- 55
2020-04-03 19:00:00 18.2 5 Sur 14 Este 0 -- -- 46
2020-04-03 18:00:00 18.3 12 Este 18 Sudeste 0 -- -- 49
2020-04-03 17:00:00 18.6 8 Sudeste 15 Este 0 -- -- 46
2020-04-03 16:00:00 17.9 5 Sudeste 17 Este 0 -- -- 46
2020-04-03 15:00:00 17.1 4 Sudoeste 16 Este 0 -- -- 53
2020-04-03 14:00:00 17.2 6 Sur 18 Este 0 -- -- 49
2020-04-03 13:00:00 15.5 6 Este 17 Nordeste 0 -- -- 60
2020-04-03 12:00:00 14.4 5 Sudeste 14 Este 0 -- -- 68
2020-04-03 11:00:00 12.4 4 Este 8 Este 0 -- -- 74
2020-04-03 10:00:00 9 0 Calma 4 Norte 0 -- -- 90
2020-04-03 09:00:00 5.5 0 Calma 3 Este 0 -- -- 99
2020-04-03 08:00:00 4 0 Calma 4 Oeste 0 -- -- 98
2020-04-03 07:00:00 4.2 0 Calma 6 Oeste 0 -- -- 96
2020-04-03 06:00:00 4.5 3 Noroeste 5 Oeste 0 -- -- 95
2020-04-03 05:00:00 5.4 0 Calma 6 Sudeste 0 -- -- 93
2020-04-03 04:00:00 7.3 5 Sudeste 13 Sudeste 0 -- -- 89
2020-04-03 03:00:00 7.6 4 Este 9 Este 0 -- -- 87
2020-04-03 02:00:00 8.6 4 Sudeste 12 Sudeste 0 -- -- 80
2020-04-03 01:00:00 10.3 5 Noroeste 13 Noroeste 0 -- -- 71
2020-04-03 00:00:00 11.1 5 Norte 27 Oeste 0 -- -- 68
2020-04-02 23:00:00 11.4 17 Oeste 24 Oeste 0 -- -- 72
2020-04-02 22:00:00 10.8 12 Oeste 20 Noroeste 0 -- -- 78
2020-04-02 21:00:00 11.9 12 Oeste 23 Oeste 0 -- -- 71
2020-04-02 20:00:00 13.9 7 Noroeste 18 Noroeste 0 -- -- 63
2020-04-02 19:00:00 14.5 10 Norte 21 Norte 0 -- -- 59
2020-04-02 18:00:00 13.7 11 Norte 26 Nordeste 0 -- -- 63
2020-04-02 17:00:00 13.7 14 Norte 23 Norte 0 -- -- 61
2020-04-02 16:00:00 12.6 9 Nordeste 24 Nordeste 0 -- -- 67
2020-04-02 15:00:00 11.5 10 Nordeste 17 Nordeste 0 -- -- 71
2020-04-02 14:00:00 9.9 8 Este 19 Nordeste 0 -- -- 78
2020-04-02 13:00:00 8.9 8 Nordeste 14 Nordeste 0 -- -- 85
2020-04-02 12:00:00 7.6 9 Este 17 Nordeste 0 -- -- 90
2020-04-02 11:00:00 7.2 10 Nordeste 15 Nordeste 0 -- -- 92
2020-04-02 10:00:00 6.2 5 Nordeste 9 Nordeste 0 -- -- 98
2020-04-02 09:00:00 5.5 6 Este 11 Este 0 -- -- 98
2020-04-02 08:00:00 5 4 Noroeste 5 Noroeste 0 -- -- 97
2020-04-02 07:00:00 5.6 3 Este 6 Este 0 -- -- 97
2020-04-02 06:00:00 5.7 0 Calma 8 Sudeste 0 -- -- 96
2020-04-02 05:00:00 5.9 6 Sudeste 11 Nordeste 0.4 -- -- 95
2020-04-02 04:00:00 6.1 5 Norte 25 Oeste 4.4 -- -- 92
2020-04-02 03:00:00 7.8 6 Sur 24 Sudeste 3.4 -- -- 96
2020-04-02 02:00:00 7.9 12 Sudeste 20 Sudeste 0 -- -- 92
2020-04-02 01:00:00 7.5 10 Este 15 Sudeste 0 -- -- 91
2020-04-02 00:00:00 8 12 Sudeste 18 Sudeste 0 -- -- 86
2020-04-01 23:00:00 7.9 8 Sudeste 16 Sudeste 0 -- -- 83
2020-04-01 22:00:00 8.1 10 Sur 19 Sur 0 -- -- 81
2020-04-01 21:00:00 9 9 Sudeste 20 Sur 0 -- -- 80
2020-04-01 20:00:00 10.7 11 Sur 27 Sudoeste 0 -- -- 74
2020-04-01 19:00:00 10.3 16 Sudoeste 27 Sudoeste 0 -- -- 76
2020-04-01 18:00:00 11.1 18 Sudoeste 27 Sudoeste 0 -- -- 72
2020-04-01 17:00:00 9.7 17 Oeste 33 Sur 1 -- -- 78
2020-04-01 16:00:00 13.5 12 Sur 23 Sudoeste 0 -- -- 52
2020-04-01 15:00:00 13.1 13 Sudoeste 28 Sudoeste 0 -- -- 58
2020-04-01 14:00:00 11.9 12 Sudoeste 26 Sudoeste 0 -- -- 58
2020-04-01 13:00:00 10.9 14 Sudoeste 24 Sudoeste 0 -- -- 63
2020-04-01 12:00:00 9.8 10 Sudoeste 19 Sudoeste 0 -- -- 71
2020-04-01 11:00:00 8.1 11 Sudoeste 19 Sudoeste 0 -- -- 87
2020-04-01 10:00:00 5.8 3 Noroeste 6 Oeste 0 -- -- 99
2020-04-01 09:00:00 4.7 0 Calma 3 Nordeste 0 -- -- 99
2020-04-01 08:00:00 4.7 0 Calma 8 Oeste 0 -- -- 98
2020-04-01 07:00:00 4.4 0 Calma 2 Sudeste 0 -- -- 97
2020-04-01 06:00:00 4.9 2 Oeste 8 Sudoeste 0 -- -- 97
2020-04-01 05:00:00 5.4 4 Sudoeste 6 Este 0 -- -- 95
2020-04-01 04:00:00 6.2 0 Calma 10 Oeste 0 -- -- 95
2020-04-01 03:00:00 7.3 5 Oeste 14 Oeste 0 -- -- 90
2020-04-01 02:00:00 8 9 Noroeste 14 Oeste 0 -- -- 90
2020-04-01 01:00:00 7.6 0 Calma 26 Oeste 0 -- -- 92
2020-04-01 00:00:00 8.8 11 Oeste 16 Oeste 0 -- -- 89
2020-03-31 23:00:00 8.8 9 Oeste 14 Sudoeste 0 -- -- 94
2020-03-31 22:00:00 10.2 10 Sudoeste 15 Oeste 0 -- -- 91
2020-03-31 21:00:00 10.8 6 Oeste 21 Oeste 0 -- -- 89
2020-03-31 20:00:00 11.2 13 Noroeste 23 Oeste 0 -- -- 83
2020-03-31 19:00:00 11.5 13 Noroeste 24 Oeste 0 -- -- 83
2020-03-31 18:00:00 11.5 10 Sur 35 Oeste 0.4 -- -- 83
2020-03-31 17:00:00 11.7 11 Sur 36 Sur 0.4 -- -- 87
2020-03-31 16:00:00 13.3 23 Sur 36 Sudeste 0 -- -- 77
2020-03-31 15:00:00 12.7 13 Sur 33 Sur 1.4 -- -- 89
2020-03-31 14:00:00 13.9 21 Sur 36 Sudoeste 0 -- -- 71
2020-03-31 13:00:00 13.6 17 Sur 37 Sudoeste 0 -- -- 75
2020-03-31 12:00:00 11.7 22 Sur 35 Sudoeste 0 -- -- 83
2020-03-31 11:00:00 10.5 15 Oeste 36 Oeste 0 -- -- 88
2020-03-31 10:00:00 9.7 16 Sudoeste 39 Sudoeste 0 -- -- 93
2020-03-31 09:00:00 9 17 Sur 34 Sur 1 -- -- 98
2020-03-31 08:00:00 7.7 8 Este 14 Este 1.4 -- -- 97
2020-03-31 07:00:00 8.1 5 Este 16 Este 3.6 -- -- 97
2020-03-31 06:00:00 8.4 8 Sudeste 14 Este 2.6 -- -- 98
2020-03-31 05:00:00 7.9 5 Sudeste 10 Sudeste 1 -- -- 98
2020-03-31 04:00:00 7.5 8 Este 15 Este 0.8 -- -- 98
2020-03-31 03:00:00 7.9 8 Este 17 Este 0 -- -- 97
2020-03-31 02:00:00 8.1 7 Este 11 Este 0.8 -- -- 97
2020-03-31 01:00:00 7.9 5 Sudeste 9 Este 0 -- -- 97
2020-03-31 00:00:00 7.3 0 Calma 3 Noroeste 0 -- -- 97
2020-03-30 23:00:00 7.1 0 Calma 4 Noroeste 0 -- -- 96
2020-03-30 22:00:00 7.7 3 Sudeste 15 Sur 0 -- -- 92
2020-03-30 21:00:00 8.7 11 Sudeste 28 Sudoeste 0.4 -- -- 88
2020-03-30 20:00:00 9.2 15 Sudoeste 26 Sudoeste 0.6 -- -- 89
2020-03-30 19:00:00 9.8 13 Oeste 35 Oeste 0.8 -- -- 87
2020-03-30 18:00:00 11.5 3 Norte 15 Noroeste 0 -- -- 88
2020-03-30 17:00:00 11.2 9 Noroeste 31 Sur 1.8 -- -- 88
2020-03-30 16:00:00 13.8 7 Sudoeste 18 Oeste 0.4 -- -- 73
2020-03-30 15:00:00 14 5 Sur 10 Sur 0 -- -- 70
2020-03-30 14:00:00 14.6 4 Sudeste 12 Este 0 -- -- 63
2020-03-30 13:00:00 14 0 Calma 9 Sur 0 -- -- 69
2020-03-30 12:00:00 11.9 0 Calma 4 Este 0 -- -- 80
2020-03-30 11:00:00 10.5 0 Calma 10 Oeste 0 -- -- 85
2020-03-30 10:00:00 9 5 Sudoeste 14 Sudoeste 0 -- -- 90
2020-03-30 09:00:00 7.4 10 Sudoeste 14 Oeste 0 -- -- 93
2020-03-30 08:00:00 6.8 2 Norte 13 Sudoeste 0 -- -- 90
2020-03-30 07:00:00 8.4 6 Oeste 11 Oeste 0 -- -- 88
2020-03-30 06:00:00 9.7 4 Sudoeste 15 Sudoeste 0 -- -- 85
2020-03-30 05:00:00 9.9 7 Sudoeste 14 Sudoeste 0 -- -- 85
2020-03-30 04:00:00 10.5 4 Norte 15 Sudoeste 0 -- -- 82
2020-03-30 03:00:00 12 2 Sudoeste 6 Sur 0 -- -- 73
2020-03-30 02:00:00 12.1 3 Noroeste 23 Oeste 0 -- -- 72
2020-03-30 01:00:00 12.1 18 Oeste 27 Oeste 0 -- -- 74
2020-03-30 00:00:00 12.7 18 Oeste 25 Oeste 0 -- -- 74
2020-03-29 23:00:00 13.4 16 Oeste 24 Oeste 0 -- -- 68
2020-03-29 22:00:00 14.4 12 Oeste 21 Oeste 0 -- -- 56
2020-03-29 21:00:00 14 6 Sudoeste 10 Oeste 0 -- -- 59
2020-03-29 20:00:00 16 5 Noroeste 12 Noroeste 0 -- -- 50
2020-03-29 19:00:00 16.9 8 Noroeste 17 Norte 0 -- -- 47
2020-03-29 18:00:00 17.5 8 Norte 17 Norte 0 -- -- 42
2020-03-29 17:00:00 17.5 6 Sudoeste 19 Oeste 0 -- -- 40
2020-03-29 16:00:00 17.5 8 Noroeste 19 Oeste 0 -- -- 43
2020-03-29 15:00:00 17 8 Noroeste 16 Oeste 0 -- -- 45
2020-03-29 14:00:00 15.9 5 Oeste 11 Noroeste 0 -- -- 50
2020-03-29 13:00:00 16.6 6 Norte 14 Nordeste 0 -- -- 48
2020-03-29 12:00:00 14.9 4 Este 11 Norte 0 -- -- 59
2020-03-29 11:00:00 11.9 2 Sudeste 6 Este 0 -- -- 67
2020-03-29 10:00:00 7.9 2 Sudeste 5 Sudeste 0 -- -- 80
2020-03-29 09:00:00 3.8 3 Sudeste 5 Sudeste 0 -- -- 95
2020-03-29 08:00:00 2.3 0 Calma 5 Noroeste 0 -- -- 93
2020-03-29 07:00:00 3.1 2 Noroeste 6 Sudeste 0 -- -- 92
2020-03-29 06:00:00 4.2 2 Sudeste 6 Sur 0 -- -- 89
2020-03-29 05:00:00 4.5 2 Noroeste 3 Oeste 0 -- -- 88
2020-03-29 03:00:00 6.7 2 Noroeste 6 Noroeste 0 -- -- 83
2020-03-29 01:00:00 7.4 3 Noroeste 6 Noroeste 0 -- -- 85
2020-03-29 00:00:00 7.6 2 Sudoeste 5 Oeste 0 -- -- 81
2020-03-28 23:00:00 6.7 2 Noroeste 3 Noroeste 0 -- -- 84
2020-03-28 22:00:00 7.8 2 Noroeste 5 Noroeste 0 -- -- 80
2020-03-28 21:00:00 10.1 0 Calma 4 Oeste 0 -- -- 71
2020-03-28 20:00:00 12.6 0 Calma 13 Este 0 -- -- 61
2020-03-28 19:00:00 16.3 4 Sudoeste 11 Sudeste 0 -- -- 46
2020-03-28 18:00:00 16.2 6 Sudeste 15 Sudeste 0 -- -- 46
2020-03-28 17:00:00 16.2 5 Sudeste 20 Este 0 -- -- 46
2020-03-28 16:00:00 15.7 6 Este 23 Este 0 -- -- 51
2020-03-28 15:00:00 15.3 6 Sudeste 22 Este 0 -- -- 51
2020-03-28 14:00:00 14.8 4 Nordeste 23 Nordeste 0 -- -- 55
2020-03-28 13:00:00 13.8 12 Este 22 Sudeste 0 -- -- 60
2020-03-28 12:00:00 12 15 Este 24 Nordeste 0 -- -- 66
2020-03-28 11:00:00 9.9 11 Este 20 Este 0 -- -- 71
2020-03-28 10:00:00 7.2 10 Este 21 Este 0 -- -- 83
2020-03-28 09:00:00 4.4 11 Este 16 Este 0 -- -- 89
2020-03-28 08:00:00 2.7 6 Este 14 Este 0 -- -- 95
2020-03-28 07:00:00 1.9 5 Este 10 Nordeste 0 -- -- 96
2020-03-28 06:00:00 1.9 4 Este 9 Este 0 -- -- 95
2020-03-28 05:00:00 2.3 4 Este 12 Este 0 -- -- 93
2020-03-28 04:00:00 2.7 4 Este 10 Este 0 -- -- 92
2020-03-28 03:00:00 2.9 4 Nordeste 10 Este 0 -- -- 91
2020-03-28 02:00:00 3.5 6 Este 13 Nordeste 0 -- -- 89
2020-03-28 01:00:00 4.1 8 Nordeste 18 Este 0 -- -- 87
2020-03-28 00:00:00 4.4 11 Este 17 Nordeste 0 -- -- 86
2020-03-27 23:00:00 5.2 9 Este 18 Este 0 -- -- 84
2020-03-27 22:00:00 6.2 11 Este 21 Este 0 -- -- 81
2020-03-27 21:00:00 6.6 6 Nordeste 13 Este 0 -- -- 81
2020-03-27 20:00:00 8 7 Este 25 Este 0 -- -- 76
2020-03-27 19:00:00 9.8 12 Este 22 Este 0 -- -- 70
2020-03-27 18:00:00 10.7 15 Este 21 Este 0 -- -- 70
2020-03-27 17:00:00 10.3 13 Nordeste 23 Nordeste 0 -- -- 71
2020-03-27 16:00:00 9.7 9 Norte 17 Nordeste 0 -- -- 81
2020-03-27 15:00:00 10.2 2 Norte 11 Norte 0 -- -- 75
2020-03-27 14:00:00 9.7 4 Este 12 Este 0 -- -- 78
2020-03-27 13:00:00 9.1 3 Este 8 Sudeste 0 -- -- 80
2020-03-27 12:00:00 7.7 3 Sur 6 Sur 0 -- -- 87
2020-03-27 11:00:00 7 3 Norte 10 Sur 0 -- -- 92
2020-03-27 10:00:00 6 5 Sur 10 Sudoeste 0 -- -- 94
2020-03-27 09:00:00 5.5 3 Sudoeste 6 Oeste 0 -- -- 98
2020-03-27 08:00:00 4.7 0 Calma 8 Noroeste 0 -- -- 98
2020-03-27 07:00:00 3.7 0 Calma 7 Nordeste 0 -- -- 97
2020-03-27 06:00:00 4.2 2 Noroeste 12 Sudoeste 0 -- -- 96
2020-03-27 05:00:00 4.2 3 Noroeste 7 Este 0 -- -- 94
2020-03-27 04:00:00 6.2 4 Sur 10 Sudoeste 0 -- -- 90
2020-03-27 03:00:00 7.1 10 Oeste 15 Oeste 0 -- -- 90
2020-03-27 02:00:00 8.8 6 Oeste 27 Oeste 0 -- -- 85
2020-03-27 01:00:00 9.2 21 Oeste 40 Oeste 0 -- -- 85
2020-03-27 00:00:00 10.1 32 Oeste 41 Oeste 0 -- -- 79
2020-03-26 23:00:00 11.2 26 Oeste 38 Oeste 0 -- -- 75
2020-03-26 22:00:00 11.9 19 Oeste 29 Oeste 0 -- -- 70
2020-03-26 21:00:00 13 17 Oeste 30 Oeste 0 -- -- 62
2020-03-26 20:00:00 14.5 17 Noroeste 32 Noroeste 0 -- -- 55
2020-03-26 19:00:00 16.3 21 Noroeste 39 Noroeste 0 -- -- 47
2020-03-26 18:00:00 17.4 24 Noroeste 38 Noroeste 0 -- -- 44
2020-03-26 17:00:00 18.1 26 Noroeste 40 Noroeste 0 -- -- 44
2020-03-26 16:00:00 18.3 24 Noroeste 46 Noroeste 0 -- -- 41
2020-03-26 15:00:00 18.3 25 Noroeste 44 Oeste 0 -- -- 39
2020-03-26 14:00:00 17.6 23 Noroeste 40 Noroeste 0 -- -- 37
2020-03-26 13:00:00 16.9 23 Oeste 40 Oeste 0 -- -- 51
2020-03-26 12:00:00 15.9 21 Noroeste 36 Noroeste 0 -- -- 55
2020-03-26 11:00:00 14.7 17 Noroeste 30 Noroeste 0 -- -- 60
2020-03-26 10:00:00 13.8 17 Noroeste 30 Noroeste 0 -- -- 63
2020-03-26 09:00:00 12.4 11 Noroeste 22 Noroeste 0 -- -- 69
2020-03-26 08:00:00 9.6 8 Sudoeste 21 Sudoeste 0 -- -- 85
2020-03-26 07:00:00 9 3 Este 34 Oeste 0 -- -- 88
2020-03-26 06:00:00 9.3 10 Oeste 28 Oeste 0 -- -- 92
2020-03-26 05:00:00 10.3 3 Sur 22 Oeste 0 -- -- 92
2020-03-26 04:00:00 10.8 8 Oeste 22 Oeste 0 -- -- 93
2020-03-26 03:00:00 11.3 4 Noroeste 24 Oeste 0 -- -- 92
2020-03-26 02:00:00 11.6 18 Oeste 27 Oeste 0 -- -- 90
2020-03-26 01:00:00 11.7 20 Oeste 28 Oeste 0 -- -- 85
2020-03-26 00:00:00 13.1 13 Oeste 20 Oeste 0 -- -- 66
2020-03-25 23:00:00 13.8 14 Oeste 20 Noroeste 0 -- -- 64
2020-03-25 22:00:00 13.5 12 Oeste 19 Oeste 0 -- -- 65
2020-03-25 21:00:00 11.5 5 Noroeste 11 Noroeste 0 -- -- 72
2020-03-25 20:00:00 12.6 5 Oeste 8 Oeste 0 -- -- 65
2020-03-25 19:00:00 16 6 Noroeste 15 Oeste 0 -- -- 57
2020-03-25 18:00:00 15.8 9 Noroeste 23 Noroeste 0 -- -- 55
2020-03-25 17:00:00 17.1 13 Norte 24 Norte 0 -- -- 48
2020-03-25 16:00:00 17.7 12 Norte 23 Norte 0 -- -- 47
2020-03-25 15:00:00 17.5 12 Noroeste 19 Noroeste 0 -- -- 46
2020-03-25 14:00:00 16.8 7 Noroeste 17 Norte 0 -- -- 48
2020-03-25 13:00:00 16.1 8 Sudeste 16 Este 0 -- -- 52
2020-03-25 12:00:00 14.9 4 Sudeste 9 Oeste 0 -- -- 55
2020-03-25 11:00:00 13.3 4 Sur 10 Este 0 -- -- 61
2020-03-25 10:00:00 11.5 5 Este 12 Este 0 -- -- 67
2020-03-25 09:00:00 9.1 6 Este 9 Este 0 -- -- 80
2020-03-25 08:00:00 7.3 0 Calma 0 Calma 0 -- -- 91
2020-03-25 07:00:00 6.7 0 Calma 4 Nordeste 0 -- -- 89
2020-03-25 06:00:00 7.3 0 Calma 5 Este 0 -- -- 88
2020-03-25 05:00:00 7.2 2 Nordeste 8 Nordeste 0 -- -- 90
2020-03-25 04:00:00 7.5 3 Este 11 Este 0 -- -- 87
2020-03-25 03:00:00 7.5 2 Norte 6 Este 0 -- -- 89
2020-03-25 02:00:00 8.1 0 Calma 6 Este 0 -- -- 87
2020-03-25 01:00:00 8.7 3 Este 12 Este 0 -- -- 85
2020-03-25 00:00:00 9 8 Este 17 Este 0 -- -- 85
2020-03-24 23:00:00 9.4 11 Este 31 Nordeste 0 -- -- 83
2020-03-24 22:00:00 10 17 Este 33 Este 0 -- -- 79
2020-03-24 21:00:00 11.1 19 Este 35 Este 0 -- -- 76
2020-03-24 20:00:00 12.4 20 Este 39 Nordeste 0 -- -- 71
2020-03-24 19:00:00 14.3 20 Este 39 Nordeste 0 -- -- 67
2020-03-24 18:00:00 15.7 25 Nordeste 38 Nordeste 0 -- -- 63
2020-03-24 17:00:00 15.8 25 Nordeste 40 Este 0 -- -- 63
2020-03-24 16:00:00 16.5 24 Este 38 Este 0 -- -- 61
2020-03-24 15:00:00 14.9 23 Nordeste 39 Este 0 -- -- 65
2020-03-24 14:00:00 15.4 26 Este 43 Nordeste 0 -- -- 62
2020-03-24 13:00:00 14.9 26 Este 46 Este 0 -- -- 66
2020-03-24 12:00:00 13.5 28 Nordeste 46 Nordeste 0 -- -- 68
2020-03-24 11:00:00 13 24 Este 41 Este 0 -- -- 70
2020-03-24 10:00:00 11.4 24 Este 41 Este 0 -- -- 78
2020-03-24 09:00:00 10.2 24 Este 41 Nordeste 0 -- -- 86
2020-03-24 08:00:00 8.7 17 Este 29 Nordeste 0 -- -- 91
2020-03-24 07:00:00 8 12 Nordeste 28 Este 0 -- -- 92
2020-03-24 06:00:00 8.3 14 Este 29 Este 0 -- -- 91
2020-03-24 05:00:00 8.8 14 Este 26 Nordeste 0 -- -- 91
2020-03-24 04:00:00 8.7 9 Este 20 Este 0 -- -- 94
2020-03-24 03:00:00 8.1 6 Este 13 Este 0 -- -- 95
2020-03-24 02:00:00 8.5 7 Este 17 Nordeste 0 -- -- 94
2020-03-24 01:00:00 9 7 Nordeste 15 Este 0 -- -- 93
2020-03-24 00:00:00 8.4 0 Calma 5 Norte 0 -- -- 95
2020-03-23 23:00:00 9 0 Calma 8 Nordeste 0.2 -- -- 92
2020-03-23 22:00:00 9.2 4 Nordeste 17 Sudeste 0 -- -- 89
2020-03-23 21:00:00 9.8 11 Sudeste 37 Nordeste 1.4 -- -- 86
2020-03-23 20:00:00 11.7 4 Norte 10 Nordeste 0 -- -- 73
2020-03-23 19:00:00 13.4 6 Este 15 Este 0 -- -- 63
2020-03-23 18:00:00 13.5 12 Este 22 Este 0 -- -- 62
2020-03-23 17:00:00 13.8 10 Nordeste 19 Este 0 -- -- 65
2020-03-23 16:00:00 11.3 5 Este 33 Este 1 -- -- 76
2020-03-23 15:00:00 12.2 5 Este 39 Este 3.2 -- -- 74
2020-03-23 14:00:00 13.5 15 Este 26 Este 0 -- -- 62
2020-03-23 13:00:00 14.1 13 Este 24 Nordeste 0 -- -- 63
2020-03-23 12:00:00 12.7 15 Sudeste 25 Este 0 -- -- 72
2020-03-23 11:00:00 10.4 12 Este 24 Este 0 -- -- 83
2020-03-23 10:00:00 8.4 13 Este 20 Este 0 -- -- 91
2020-03-23 09:00:00 7.8 10 Nordeste 18 Este 0 -- -- 97
2020-03-23 08:00:00 6.7 2 Nordeste 5 Nordeste 0 -- -- 98
2020-03-23 07:00:00 6.4 0 Calma 5 Noroeste 0 -- -- 98
2020-03-23 06:00:00 6.3 0 Calma 5 Oeste 0 -- -- 96
2020-03-23 05:00:00 7.5 3 Este 4 Este 0 -- -- 95
2020-03-23 04:00:00 7.8 3 Este 10 Este 0 -- -- 94
2020-03-23 03:00:00 7.9 0 Calma 3 Este 0.2 -- -- 93
2020-03-23 02:00:00 7.9 0 Calma 4 Noroeste 0 -- -- 94
2020-03-23 01:00:00 8 0 Calma 3 Nordeste 0 -- -- 93
2020-03-23 00:00:00 7.8 0 Calma 6 Este 0 -- -- 90
2020-03-22 23:00:00 8.5 0 Calma 8 Norte 0 -- -- 88
2020-03-22 22:00:00 8.7 4 Norte 8 Norte 0.4 -- -- 88
2020-03-22 21:00:00 8.7 0 Calma 6 Sudoeste 0 -- -- 89
2020-03-22 20:00:00 8.6 0 Calma 4 Sur 0 -- -- 86
2020-03-22 19:00:00 10.5 4 Sudeste 21 Este 0 -- -- 74
2020-03-22 18:00:00 11.2 15 Este 31 Este 0 -- -- 71
2020-03-22 17:00:00 13.5 6 Norte 17 Nordeste 0 -- -- 57
2020-03-22 16:00:00 12.9 13 Norte 19 Norte 0 -- -- 59
2020-03-22 15:00:00 13.3 6 Norte 16 Norte 0 -- -- 59
2020-03-22 14:00:00 11.9 9 Este 17 Este 0 -- -- 64
2020-03-22 13:00:00 11.6 6 Nordeste 17 Nordeste 0 -- -- 65
2020-03-22 12:00:00 11.5 8 Este 19 Este 0 -- -- 66
2020-03-22 11:00:00 10.1 11 Este 18 Nordeste 0 -- -- 74
2020-03-22 10:00:00 9.1 9 Este 15 Este 0 -- -- 84
2020-03-22 09:00:00 6.3 4 Este 8 Este 0 -- -- 98
2020-03-22 08:00:00 4.7 3 Nordeste 5 Nordeste 0 -- -- 98
2020-03-22 07:00:00 4.6 0 Calma 8 Sudeste 0 -- -- 97
2020-03-22 06:00:00 5.3 3 Este 8 Este 0 -- -- 96
2020-03-22 05:00:00 5.6 6 Este 12 Este 0 -- -- 95
2020-03-22 04:00:00 6.1 6 Nordeste 9 Nordeste 0 -- -- 95
2020-03-22 03:00:00 5.9 2 Este 4 Este 0 -- -- 97
2020-03-22 02:00:00 5.5 2 Sur 10 Sur 0 -- -- 94
2020-03-22 01:00:00 6.7 6 Sur 17 Sur 0 -- -- 92
2020-03-22 00:00:00 6.8 8 Sur 15 Sur 0 -- -- 94
2020-03-21 23:00:00 7 7 Sudeste 18 Sudeste 0 -- -- 93
2020-03-21 22:00:00 6.9 10 Sur 20 Sur 0 -- -- 90
2020-03-21 21:00:00 7.3 11 Sudeste 19 Sur 0 -- -- 87
2020-03-21 20:00:00 7.6 13 Sudeste 25 Sudeste 0 -- -- 83
2020-03-21 19:00:00 8.4 14 Sudeste 29 Sudeste 0.4 -- -- 89
2020-03-21 18:00:00 8.7 8 Sudeste 19 Sudeste 0.4 -- -- 87
2020-03-21 17:00:00 8.8 12 Sur 32 Sur 0.4 -- -- 89
2020-03-21 16:00:00 9 24 Sur 38 Sur 0 -- -- 83
2020-03-21 15:00:00 12.4 16 Sur 32 Sur 0 -- -- 65
2020-03-21 14:00:00 12.8 14 Sur 32 Sur 0 -- -- 60
2020-03-21 13:00:00 12.7 17 Sur 34 Sur 0 -- -- 63
2020-03-21 12:00:00 12.3 16 Sur 30 Sudoeste 0 -- -- 67
2020-03-21 11:00:00 9.9 14 Sudoeste 28 Sudoeste 0 -- -- 79
2020-03-21 10:00:00 9.2 12 Sur 19 Sudoeste 0.2 -- -- 83
2020-03-21 09:00:00 7.9 6 Sur 9 Sudoeste 0 -- -- 93
2020-03-21 08:00:00 7.4 7 Sudoeste 18 Oeste 0 -- -- 93
2020-03-21 07:00:00 7.5 10 Oeste 23 Sudoeste 0 -- -- 92
2020-03-21 06:00:00 7.6 5 Sudeste 10 Sudeste 0.6 -- -- 91
2020-03-21 05:00:00 7.7 7 Sudoeste 38 Sudoeste 2.8 -- -- 91
2020-03-21 04:00:00 9.8 18 Sudoeste 33 Sur 4.4 -- -- 92
2020-03-21 03:00:00 11.3 18 Sudeste 31 Sur 0 -- -- 89
2020-03-21 02:00:00 11 13 Sudeste 25 Sur 0.2 -- -- 92
2020-03-21 01:00:00 11.2 18 Sur 28 Sur 0.2 -- -- 89
2020-03-21 00:00:00 11.8 12 Sudeste 28 Sudeste 0 -- -- 81
2020-03-20 23:00:00 11.9 13 Sudeste 21 Sudeste 0 -- -- 79
2020-03-20 22:00:00 11.9 8 Sudeste 13 Sur 0 -- -- 81
2020-03-20 21:00:00 13 10 Sudeste 18 Sur 0 -- -- 77
2020-03-20 20:00:00 13.2 8 Sur 10 Sur 0 -- -- 78
2020-03-20 19:00:00 14.6 8 Sur 20 Sudeste 0.2 -- -- 76
2020-03-20 18:00:00 16.5 12 Sur 23 Sur 0 -- -- 61
2020-03-20 17:00:00 16.6 13 Sur 27 Sur 0 -- -- 62
2020-03-20 16:00:00 16.3 16 Sur 27 Sur 0 -- -- 63
2020-03-20 15:00:00 16.6 10 Sudeste 23 Sudeste 0 -- -- 60
2020-03-20 14:00:00 16.3 11 Sudeste 25 Sudeste 0 -- -- 61
2020-03-20 13:00:00 16.1 13 Sudeste 27 Sudeste 0 -- -- 63
2020-03-20 12:00:00 15 16 Sudeste 28 Sudeste 0 -- -- 68
2020-03-20 11:00:00 13.1 21 Sudeste 32 Sudeste 0 -- -- 75
2020-03-20 10:00:00 12.8 15 Sudeste 24 Sudeste 0 -- -- 78
2020-03-20 09:00:00 11.8 10 Sur 19 Sudeste 0 -- -- 87
2020-03-20 08:00:00 9.2 5 Sudeste 10 Sudeste 0 -- -- 96
2020-03-20 07:00:00 9.2 2 Noroeste 7 Sudeste 0 -- -- 94
2020-03-20 06:00:00 10 3 Sudeste 5 Sudeste 0 -- -- 92
2020-03-20 05:00:00 10.1 2 Nordeste 4 Sudoeste 0 -- -- 91
2020-03-20 04:00:00 11.2 2 Sur 17 Sur 0 -- -- 83
2020-03-20 03:00:00 12.2 9 Sur 16 Sur 0 -- -- 81
2020-03-20 02:00:00 12.6 9 Sur 16 Sur 0 -- -- 79
2020-03-20 01:00:00 12.6 8 Sur 19 Sudoeste 0 -- -- 79
2020-03-20 00:00:00 11.6 6 Sudoeste 9 Sudoeste 0 -- -- 83
2020-03-19 23:00:00 10.9 0 Calma 4 Noroeste 0 -- -- 83
2020-03-19 22:00:00 11.6 3 Noroeste 4 Noroeste 0 -- -- 82
2020-03-19 21:00:00 14 0 Calma 5 Sudeste 0 -- -- 73
2020-03-19 20:00:00 15.4 3 Sudeste 11 Este 0 -- -- 67
2020-03-19 19:00:00 16.9 6 Este 14 Este 0 -- -- 61
2020-03-19 18:00:00 18 7 Este 15 Este 0 -- -- 56
2020-03-19 17:00:00 17.9 7 Nordeste 22 Nordeste 0 -- -- 56
2020-03-19 16:00:00 17.8 13 Este 20 Este 0 -- -- 56
2020-03-19 15:00:00 17.9 12 Nordeste 21 Nordeste 0 -- -- 56
2020-03-19 14:00:00 17.6 12 Este 22 Este 0 -- -- 54
2020-03-19 13:00:00 16.7 14 Este 23 Este 0 -- -- 58
2020-03-19 12:00:00 15 14 Este 21 Este 0 -- -- 63
2020-03-19 11:00:00 12.8 10 Este 17 Nordeste 0 -- -- 69
2020-03-19 10:00:00 10.5 10 Nordeste 15 Este 0 -- -- 75
2020-03-19 09:00:00 8.3 0 Calma 4 Sudeste 0 -- -- 84
2020-03-19 08:00:00 6.5 0 Calma 8 Este 0 -- -- 86
2020-03-19 07:00:00 6 0 Calma 8 Nordeste 0 -- -- 91
2020-03-19 06:00:00 5.8 0 Calma 7 Noroeste 0 -- -- 93
2020-03-19 05:00:00 6.5 5 Norte 6 Norte 0 -- -- 89
2020-03-19 04:00:00 8.1 0 Calma 8 Sudeste 0 -- -- 84
2020-03-19 03:00:00 9.4 2 Sur 8 Sudeste 0 -- -- 82
2020-03-19 02:00:00 9.9 4 Este 19 Este 0 -- -- 80
2020-03-19 01:00:00 11.1 5 Este 10 Este 0 -- -- 76
2020-03-19 00:00:00 11.3 0 Calma 7 Norte 0 -- -- 76
2020-03-18 23:00:00 12.1 3 Sur 14 Este 0 -- -- 73
2020-03-18 22:00:00 12.6 5 Sudeste 26 Este 0 -- -- 72
2020-03-18 21:00:00 13.7 13 Este 33 Este 0 -- -- 68
2020-03-18 20:00:00 14.8 14 Este 28 Nordeste 0 -- -- 67
2020-03-18 19:00:00 16.8 17 Este 33 Este 0 -- -- 61
2020-03-18 18:00:00 19.4 23 Este 35 Nordeste 0 -- -- 50
2020-03-18 17:00:00 20.4 18 Nordeste 31 Nordeste 0 -- -- 48
2020-03-18 16:00:00 20.3 18 Nordeste 32 Nordeste 0 -- -- 47
2020-03-18 15:00:00 19.7 14 Este 28 Nordeste 0 -- -- 52
2020-03-18 14:00:00 17.8 15 Nordeste 29 Este 0 -- -- 56
2020-03-18 13:00:00 16.5 17 Nordeste 29 Este 0 -- -- 62
2020-03-18 12:00:00 14.8 19 Este 29 Nordeste 0 -- -- 67
2020-03-18 11:00:00 13.9 18 Este 32 Este 0 -- -- 68
2020-03-18 10:00:00 12.2 19 Este 33 Este 0 -- -- 76
2020-03-18 09:00:00 10.7 15 Nordeste 30 Este 0 -- -- 81
2020-03-18 08:00:00 9.4 16 Este 28 Este 0 -- -- 86
2020-03-18 07:00:00 9.6 14 Este 28 Nordeste 0 -- -- 85
2020-03-18 06:00:00 9.9 15 Este 38 Este 0 -- -- 84
2020-03-18 05:00:00 10.4 18 Este 33 Nordeste 0 -- -- 83
2020-03-18 04:00:00 10.9 17 Este 28 Este 0 -- -- 85
2020-03-18 03:00:00 11.6 17 Este 33 Nordeste 0 -- -- 85
2020-03-18 02:00:00 11.9 20 Este 36 Nordeste 0 -- -- 85
2020-03-18 01:00:00 12 17 Este 36 Este 0 -- -- 86
2020-03-18 00:00:00 12.2 22 Este 40 Nordeste 0 -- -- 84
2020-03-17 23:00:00 12.6 21 Este 35 Nordeste 0 -- -- 77
2020-03-17 22:00:00 11.6 8 Nordeste 15 Nordeste 0 -- -- 72
2020-03-17 21:00:00 10.8 0 Calma 5 Norte 0 -- -- 79
2020-03-17 20:00:00 13.3 4 Este 13 Este 0.4 -- -- 65
2020-03-17 19:00:00 14.8 9 Este 25 Este 0 -- -- 46
2020-03-17 18:00:00 15.5 16 Este 31 Este 0 -- -- 41
2020-03-17 17:00:00 15.7 17 Este 33 Este 0 -- -- 44
2020-03-17 16:00:00 14.5 22 Nordeste 35 Nordeste 0 -- -- 49
2020-03-17 15:00:00 15.3 23 Este 41 Este 0 -- -- 44
2020-03-17 14:00:00 14.1 21 Este 38 Este 0 -- -- 49
2020-03-17 13:00:00 13.6 22 Este 34 Este 0 -- -- 52
2020-03-17 12:00:00 12.4 18 Este 31 Este 0 -- -- 62
2020-03-17 11:00:00 9.1 15 Este 27 Este 0 -- -- 81
2020-03-17 10:00:00 6.5 11 Este 20 Este 0 -- -- 91
2020-03-17 09:00:00 5.3 10 Este 17 Este 0 -- -- 94
2020-03-17 08:00:00 4.7 9 Este 15 Este 0 -- -- 95
2020-03-17 07:00:00 4.6 10 Este 30 Este 0 -- -- 93
2020-03-17 06:00:00 4.8 14 Este 23 Este 0.2 -- -- 93
2020-03-17 05:00:00 4.6 19 Este 30 Este 0.6 -- -- 91
2020-03-17 04:00:00 4.8 9 Este 19 Este 0.2 -- -- 97
2020-03-17 03:00:00 4.4 10 Este 18 Este 0 -- -- 95
2020-03-17 02:00:00 4.5 11 Este 22 Este 0 -- -- 94
2020-03-17 01:00:00 4.5 12 Este 19 Este 0 -- -- 94
2020-03-17 00:00:00 4.6 10 Nordeste 19 Nordeste 0.6 -- -- 91
2020-03-16 23:00:00 5.1 8 Norte 17 Norte 0.2 -- -- 91
2020-03-16 22:00:00 5.3 10 Noroeste 21 Noroeste 0 -- -- 89
2020-03-16 21:00:00 5.7 12 Norte 30 Noroeste 0 -- -- 83
2020-03-16 20:00:00 6 17 Norte 38 Noroeste 0 -- -- 79
2020-03-16 19:00:00 7 19 Norte 38 Noroeste 0 -- -- 74
2020-03-16 18:00:00 7.7 23 Noroeste 40 Oeste 0 -- -- 73
2020-03-16 17:00:00 7.3 24 Oeste 41 Noroeste 0.2 -- -- 79
2020-03-16 16:00:00 6.3 25 Noroeste 45 Oeste 0.4 -- -- 85
2020-03-16 15:00:00 6.3 28 Noroeste 47 Noroeste 0.2 -- -- 81
2020-03-16 14:00:00 8.1 23 Noroeste 35 Noroeste 0 -- -- 61
2020-03-16 13:00:00 8.3 24 Noroeste 36 Noroeste 0 -- -- 62
2020-03-16 12:00:00 7.3 23 Noroeste 39 Noroeste 0 -- -- 64
2020-03-16 11:00:00 6.6 23 Noroeste 36 Noroeste 0 -- -- 72
2020-03-16 10:00:00 5.9 22 Noroeste 41 Oeste 0 -- -- 75
2020-03-16 09:00:00 4.1 22 Oeste 36 Oeste 0 -- -- 85
2020-03-16 08:00:00 2.8 23 Oeste 33 Oeste 0 -- -- 88
2020-03-16 07:00:00 2.8 21 Oeste 36 Oeste 0 -- -- 86
2020-03-16 06:00:00 3.1 19 Oeste 39 Noroeste 0 -- -- 83
2020-03-16 05:00:00 4.2 27 Noroeste 40 Noroeste 0 -- -- 75
2020-03-16 04:00:00 4.2 22 Noroeste 50 Noroeste 0 -- -- 80
2020-03-16 03:00:00 5.3 34 Noroeste 50 Oeste 0 -- -- 75
2020-03-16 02:00:00 6.6 22 Noroeste 41 Noroeste 0 -- -- 79
2020-03-16 01:00:00 8.3 32 Noroeste 44 Noroeste 0 -- -- 77
2020-03-16 00:00:00 10.2 25 Noroeste 41 Noroeste 0 -- -- 78
2020-03-15 23:00:00 11.8 30 Noroeste 41 Noroeste 0 -- -- 68
2020-03-15 22:00:00 13.1 26 Noroeste 38 Noroeste 0 -- -- 68
2020-03-15 21:00:00 14 21 Noroeste 30 Noroeste 0 -- -- 78
2020-03-15 20:00:00 15.2 19 Noroeste 34 Sudoeste 0 -- -- 74
2020-03-15 19:00:00 15 23 Sudoeste 52 Sur 5.8 -- -- 70
2020-03-15 18:00:00 19.3 19 Sudoeste 33 Sudoeste 0 -- -- 55
2020-03-15 17:00:00 20.6 21 Sudoeste 35 Sudoeste 0 -- -- 52
2020-03-15 16:00:00 22.2 18 Sudoeste 30 Oeste 0 -- -- 42
2020-03-15 15:00:00 21.9 19 Sudoeste 32 Sudoeste 0 -- -- 45
2020-03-15 14:00:00 20.9 17 Sudoeste 24 Sudoeste 0 -- -- 51
2020-03-15 13:00:00 20.5 10 Sur 24 Sudoeste 0 -- -- 56
2020-03-15 12:00:00 18.8 11 Sudoeste 22 Sudoeste 0 -- -- 63
2020-03-15 11:00:00 17 10 Sur 18 Sudoeste 0 -- -- 73
2020-03-15 10:00:00 13.8 5 Sudoeste 12 Sur 0 -- -- 85
2020-03-15 09:00:00 11.4 4 Nordeste 6 Nordeste 0 -- -- 98
2020-03-15 08:00:00 7.9 3 Noroeste 6 Sudoeste 0 -- -- 95
2020-03-15 07:00:00 9.4 2 Sudoeste 6 Sudeste 0 -- -- 98
2020-03-15 06:00:00 7.6 3 Noroeste 5 Noroeste 0 -- -- 96
2020-03-15 05:00:00 8.1 4 Noroeste 7 Oeste 0 -- -- 95
2020-03-15 04:00:00 8.7 0 Calma 3 Norte 0 -- -- 93
2020-03-15 03:00:00 9.3 3 Oeste 6 Noroeste 0 -- -- 89
2020-03-15 02:00:00 10.1 0 Calma 5 Oeste 0 -- -- 89
2020-03-15 01:00:00 10.7 5 Noroeste 8 Noroeste 0 -- -- 85
2020-03-15 00:00:00 11.7 0 Calma 10 Noroeste 0 -- -- 83
2020-03-14 23:00:00 13.1 2 Norte 9 Sudeste 0 -- -- 79
2020-03-14 22:00:00 14 2 Oeste 4 Sur 0 -- -- 77
2020-03-14 21:00:00 15.2 4 Oeste 6 Noroeste 0 -- -- 70
2020-03-14 20:00:00 16.4 3 Noroeste 5 Noroeste 0 -- -- 66
2020-03-14 19:00:00 19.1 5 Norte 10 Norte 0 -- -- 62
2020-03-14 18:00:00 20.8 7 Norte 15 Norte 0 -- -- 57
2020-03-14 17:00:00 22.7 8 Norte 15 Norte 0 -- -- 50
2020-03-14 16:00:00 21.8 8 Nordeste 24 Nordeste 0 -- -- 52
2020-03-14 15:00:00 22 6 Oeste 13 Oeste 0 -- -- 49
2020-03-14 14:00:00 21 4 Sudeste 13 Nordeste 0 -- -- 55
2020-03-14 13:00:00 19.3 6 Nordeste 12 Sur 0 -- -- 64
2020-03-14 12:00:00 18.7 8 Sur 13 Sur 0 -- -- 68
2020-03-14 11:00:00 15.6 3 Sudeste 8 Este 0 -- -- 80
2020-03-14 10:00:00 11.5 2 Este 6 Norte 0 -- -- 99
2020-03-14 09:00:00 8.9 0 Calma 8 Noroeste 0 -- -- 100
2020-03-14 08:00:00 7.2 3 Noroeste 9 Sudoeste 0 -- -- 99
2020-03-14 07:00:00 6.5 0 Calma 3 Noroeste 0 -- -- 98
2020-03-14 06:00:00 6.2 2 Noroeste 6 Noroeste 0 -- -- 97
2020-03-14 05:00:00 6.7 0 Calma 3 Norte 0 -- -- 96
2020-03-14 04:00:00 7.1 0 Calma 4 Oeste 0 -- -- 95
2020-03-14 03:00:00 7.7 2 Noroeste 6 Oeste 0 -- -- 93
2020-03-14 02:00:00 8.9 0 Calma 10 Sudoeste 0 -- -- 93
2020-03-14 01:00:00 10 4 Sudeste 8 Este 0 -- -- 88
2020-03-14 00:00:00 11.3 3 Este 13 Oeste 0 -- -- 86
2020-03-13 23:00:00 12.5 3 Norte 19 Oeste 0 -- -- 82
2020-03-13 22:00:00 12.9 2 Oeste 7 Oeste 0 -- -- 83
2020-03-13 21:00:00 13.5 3 Noroeste 8 Norte 0 -- -- 77
2020-03-13 20:00:00 15.2 0 Calma 12 Noroeste 0 -- -- 71
2020-03-13 19:00:00 18.3 9 Noroeste 21 Norte 0 -- -- 62
2020-03-13 18:00:00 20.6 13 Norte 22 Oeste 0 -- -- 56
2020-03-13 17:00:00 21.5 17 Oeste 26 Oeste 0 -- -- 47
2020-03-13 16:00:00 21.8 14 Oeste 24 Oeste 0 -- -- 39
2020-03-13 15:00:00 21.6 18 Oeste 29 Oeste 0 -- -- 47
2020-03-13 14:00:00 21.7 13 Oeste 24 Sudoeste 0 -- -- 47
2020-03-13 13:00:00 21 9 Sudoeste 22 Oeste 0 -- -- 55
2020-03-13 12:00:00 19.3 10 Sudoeste 18 Sudoeste 0 -- -- 60
2020-03-13 11:00:00 17.4 8 Sudoeste 14 Sudoeste 0 -- -- 69
2020-03-13 10:00:00 14.7 5 Sur 8 Sudoeste 0 -- -- 76
2020-03-13 09:00:00 9.6 0 Calma 4 Noroeste 0 -- -- 98
2020-03-13 08:00:00 5.3 2 Noroeste 4 Noroeste 0 -- -- 95
2020-03-13 07:00:00 6.4 0 Calma 5 Noroeste 0 -- -- 95
2020-03-13 06:00:00 5.8 3 Noroeste 5 Noroeste 0 -- -- 96
2020-03-13 05:00:00 6 0 Calma 3 Noroeste 0 -- -- 93
2020-03-13 04:00:00 6.7 0 Calma 3 Noroeste 0 -- -- 90
2020-03-13 03:00:00 7.6 3 Noroeste 4 Noroeste 0 -- -- 89
2020-03-13 02:00:00 9 0 Calma 6 Oeste 0 -- -- 84
2020-03-13 01:00:00 10.9 0 Calma 5 Sudoeste 0 -- -- 79
2020-03-13 00:00:00 13.5 2 Sudoeste 14 Sudoeste 0 -- -- 73
2020-03-12 23:00:00 14.6 9 Sudoeste 12 Sudoeste 0 -- -- 67
2020-03-12 22:00:00 15.8 11 Sudoeste 15 Sudoeste 0 -- -- 61
2020-03-12 21:00:00 16.2 11 Oeste 15 Oeste 0 -- -- 57
2020-03-12 20:00:00 18 7 Oeste 16 Oeste 0 -- -- 53
2020-03-12 19:00:00 21.2 13 Sudoeste 21 Sudoeste 0 -- -- 43
2020-03-12 18:00:00 23.6 15 Sudoeste 28 Sudoeste 0 -- -- 35
2020-03-12 17:00:00 25.3 18 Sudoeste 30 Sudoeste 0 -- -- 31
2020-03-12 16:00:00 25.5 15 Sudoeste 31 Sudoeste 0 -- -- 34
2020-03-12 15:00:00 25.3 15 Sur 28 Sur 0 -- -- 34
2020-03-12 14:00:00 23.8 16 Sur 32 Sur 0 -- -- 39
2020-03-12 13:00:00 23.6 18 Sur 31 Sudoeste 0 -- -- 38
2020-03-12 12:00:00 22 14 Sur 24 Sudoeste 0 -- -- 40
2020-03-12 11:00:00 20.2 10 Sur 17 Sur 0 -- -- 44
2020-03-12 10:00:00 16.2 3 Nordeste 5 Noroeste 0 -- -- 60
2020-03-12 09:00:00 11.7 2 Noroeste 5 Noroeste 0 -- -- 81
2020-03-12 08:00:00 7.6 3 Noroeste 5 Noroeste 0 -- -- 87
2020-03-12 07:00:00 8.3 4 Noroeste 8 Noroeste 0 -- -- 81
2020-03-12 06:00:00 7.7 3 Oeste 5 Noroeste 0 -- -- 83
2020-03-12 05:00:00 7.9 2 Noroeste 8 Noroeste 0 -- -- 82
2020-03-12 04:00:00 7.9 2 Noroeste 4 Noroeste 0 -- -- 84
2020-03-12 03:00:00 9.5 3 Oeste 5 Noroeste 0 -- -- 78
2020-03-12 02:00:00 8.8 2 Noroeste 5 Noroeste 0 -- -- 80
2020-03-12 01:00:00 9.5 3 Noroeste 5 Noroeste 0 -- -- 79
2020-03-12 00:00:00 9.8 4 Noroeste 5 Noroeste 0 -- -- 76
2020-03-11 23:00:00 11.1 3 Noroeste 6 Noroeste 0 -- -- 72
2020-03-11 22:00:00 12.3 3 Noroeste 5 Noroeste 0 -- -- 69
2020-03-11 21:00:00 14.5 4 Noroeste 6 Noroeste 0 -- -- 59
2020-03-11 20:00:00 17.8 4 Noroeste 9 Sur 0 -- -- 50
2020-03-11 19:00:00 22.4 8 Sudoeste 10 Sudoeste 0 -- -- 42
2020-03-11 18:00:00 25.6 5 Sur 17 Sudeste 0 -- -- 33
2020-03-11 17:00:00 26.8 12 Sur 19 Sur 0 -- -- 30
2020-03-11 16:00:00 27.2 14 Sur 21 Sur 0 -- -- 30
2020-03-11 15:00:00 27.6 7 Sur 23 Sur 0 -- -- 30
2020-03-11 14:00:00 26.6 8 Sudoeste 21 Sur 0 -- -- 33
2020-03-11 13:00:00 25.4 7 Sudeste 17 Sudeste 0 -- -- 37
2020-03-11 12:00:00 22.4 10 Este 15 Sudeste 0 -- -- 44
2020-03-11 11:00:00 19.5 0 Calma 6 Este 0 -- -- 53
2020-03-11 10:00:00 15.5 0 Calma 3 Noroeste 0 -- -- 66
2020-03-11 09:00:00 9.8 0 Calma 4 Norte 0 -- -- 85
2020-03-11 08:00:00 5.1 0 Calma 5 Noroeste 0 -- -- 93
2020-03-11 07:00:00 5.3 3 Noroeste 6 Noroeste 0 -- -- 91
2020-03-11 06:00:00 5.5 5 Noroeste 7 Noroeste 0 -- -- 92
2020-03-11 05:00:00 5.4 0 Calma 4 Noroeste 0 -- -- 90
2020-03-11 04:00:00 6.5 0 Calma 4 Norte 0 -- -- 88
2020-03-11 03:00:00 6.7 0 Calma 4 Norte 0 -- -- 87
2020-03-11 02:00:00 7.5 2 Oeste 4 Noroeste 0 -- -- 84
2020-03-11 01:00:00 8 0 Calma 5 Oeste 0 -- -- 83
2020-03-11 00:00:00 8.9 2 Noroeste 6 Noroeste 0 -- -- 81
2020-03-10 23:00:00 9.7 2 Noroeste 6 Noroeste 0 -- -- 77
2020-03-10 22:00:00 10.9 2 Noroeste 6 Noroeste 0 -- -- 72
2020-03-10 21:00:00 12.8 3 Noroeste 5 Noroeste 0 -- -- 66
2020-03-10 20:00:00 15.2 3 Sudoeste 5 Este 0 -- -- 63
2020-03-10 19:00:00 21.3 2 Noroeste 7 Norte 0 -- -- 44
2020-03-10 18:00:00 23.6 7 Nordeste 15 Nordeste 0 -- -- 38
2020-03-10 17:00:00 24.3 10 Nordeste 16 Nordeste 0 -- -- 37
2020-03-10 16:00:00 24.2 4 Nordeste 15 Nordeste 0 -- -- 36
2020-03-10 15:00:00 23.6 5 Nordeste 13 Nordeste 0 -- -- 36
2020-03-10 14:00:00 22.2 3 Oeste 12 Sudeste 0 -- -- 37
2020-03-10 13:00:00 20.6 4 Sudeste 13 Este 0 -- -- 41
2020-03-10 12:00:00 18.6 7 Este 13 Este 0 -- -- 44
2020-03-10 11:00:00 16.1 7 Nordeste 13 Nordeste 0 -- -- 49
2020-03-10 10:00:00 12.9 5 Este 8 Este 0 -- -- 58
2020-03-10 09:00:00 8.3 3 Este 5 Este 0 -- -- 74
2020-03-10 08:00:00 3.3 0 Calma 3 Norte 0 -- -- 90
2020-03-10 07:00:00 3.6 0 Calma 4 Sudeste 0 -- -- 88
2020-03-10 06:00:00 4 0 Calma 4 Noroeste 0 -- -- 84
2020-03-10 05:00:00 4.1 3 Noroeste 5 Noroeste 0 -- -- 85
2020-03-10 04:00:00 5 0 Calma 3 Noroeste 0 -- -- 80
2020-03-10 03:00:00 6.4 0 Calma 3 Oeste 0 -- -- 77
2020-03-10 02:00:00 7.6 0 Calma 8 Sudeste 0 -- -- 73
2020-03-10 01:00:00 10.5 3 Oeste 12 Sudoeste 0 -- -- 56
2020-03-10 00:00:00 10.3 8 Oeste 14 Norte 0 -- -- 58